createdAt,value
2023-05-14T00:01:33.521Z,74.93
2023-05-14T00:04:01.404Z,75.10
2023-05-14T00:06:29.466Z,75.27
2023-05-14T00:08:57.547Z,75.11
2023-05-14T00:11:25.690Z,74.90
2023-05-14T00:13:53.490Z,75.08
2023-05-14T00:16:21.413Z,75.29
2023-05-14T00:18:49.283Z,75.33
2023-05-14T00:21:17.497Z,75.38
2023-05-14T00:23:45.361Z,75.36
2023-05-14T00:26:13.181Z,75.53
2023-05-14T00:28:41.006Z,75.53
2023-05-14T00:31:08.831Z,75.56
2023-05-14T00:33:36.838Z,75.74
2023-05-14T00:36:04.793Z,75.59
2023-05-14T00:38:32.581Z,75.56
2023-05-14T00:41:00.350Z,75.76
2023-05-14T00:43:28.556Z,76.08
2023-05-14T00:45:56.519Z,76.02
2023-05-14T00:48:24.753Z,76.09
2023-05-14T00:50:52.846Z,76.27
2023-05-14T00:53:21.252Z,75.95
2023-05-14T00:55:50.547Z,76.15
2023-05-14T00:58:19.614Z,76.09
2023-05-14T01:00:47.539Z,76.18
2023-05-14T01:03:15.995Z,76.51
2023-05-14T01:06:01.131Z,76.46
2023-05-14T01:08:57.314Z,76.39
2023-05-14T01:11:54.536Z,76.41
2023-05-14T01:14:41.205Z,76.43
2023-05-14T01:17:12.171Z,76.54
2023-05-14T01:19:42.465Z,76.67
2023-05-14T01:22:11.786Z,76.69
2023-05-14T01:24:40.560Z,76.82
2023-05-14T01:27:23.634Z,76.77
2023-05-14T01:30:09.933Z,76.91
2023-05-14T01:32:40.454Z,76.83
2023-05-14T01:35:09.588Z,76.77
2023-05-14T01:37:40.154Z,77.16
2023-05-14T01:40:09.788Z,77.21
2023-05-14T01:42:38.479Z,77.38
2023-05-14T01:45:06.895Z,77.05
2023-05-14T01:47:34.745Z,77.26
2023-05-14T01:50:02.608Z,77.62
2023-05-14T01:52:30.583Z,77.45
2023-05-14T01:55:00.031Z,77.41
2023-05-14T01:57:28.105Z,77.39
2023-05-14T01:59:56.122Z,77.53
2023-05-14T02:02:23.936Z,77.68
2023-05-14T02:04:52.293Z,77.74
2023-05-14T02:07:20.203Z,77.76
2023-05-14T02:09:48.183Z,77.45
2023-05-14T02:12:16.062Z,77.18
2023-05-14T02:14:43.856Z,77.36
2023-05-14T02:17:11.829Z,77.38
2023-05-14T02:19:39.744Z,77.18
2023-05-14T02:22:07.602Z,77.14
2023-05-14T02:24:35.423Z,77.12
2023-05-14T02:27:03.496Z,77.37
2023-05-14T02:29:31.278Z,77.39
2023-05-14T02:31:59.224Z,77.08
2023-05-14T02:34:27.002Z,77.08
2023-05-14T02:36:54.892Z,77.20
2023-05-14T02:39:22.722Z,77.57
2023-05-14T02:41:50.559Z,77.77
2023-05-14T02:44:18.494Z,77.80
2023-05-14T02:46:46.698Z,77.81
2023-05-14T02:49:14.685Z,78.02
2023-05-14T02:51:42.600Z,78.32
2023-05-14T02:54:10.437Z,78.42
2023-05-14T02:56:38.398Z,78.72
2023-05-14T02:59:06.294Z,78.98
2023-05-14T03:01:34.410Z,78.98
2023-05-14T03:04:02.692Z,79.32
2023-05-14T03:06:31.498Z,79.23
2023-05-14T03:08:59.360Z,79.09
2023-05-14T03:11:27.682Z,79.13
2023-05-14T03:13:55.460Z,79.05
2023-05-14T03:16:23.453Z,78.70
2023-05-14T03:18:51.421Z,78.78
2023-05-14T03:21:19.408Z,78.92
2023-05-14T03:23:47.267Z,78.83
2023-05-14T03:26:15.358Z,78.94
2023-05-14T03:28:44.573Z,78.57
2023-05-14T03:31:12.409Z,78.42
2023-05-14T03:33:40.900Z,78.54
2023-05-14T03:36:09.128Z,78.65
2023-05-14T03:38:36.931Z,78.30
2023-05-14T03:41:04.750Z,78.04
2023-05-14T03:43:32.562Z,77.89
2023-05-14T03:46:00.662Z,77.68
2023-05-14T03:48:28.722Z,77.67
2023-05-14T03:50:57.358Z,77.46
2023-05-14T03:53:25.283Z,77.23
2023-05-14T03:55:53.260Z,76.97
2023-05-14T03:58:21.067Z,76.84
2023-05-14T04:00:48.978Z,77.04
2023-05-14T04:03:17.141Z,76.79
2023-05-14T04:05:44.990Z,76.94
2023-05-14T04:08:12.740Z,77.04
2023-05-14T04:10:42.550Z,77.18
2023-05-14T04:13:10.494Z,77.22
2023-05-14T04:15:39.507Z,76.97
2023-05-14T04:18:07.436Z,76.96
2023-05-14T04:20:35.596Z,77.28
2023-05-14T04:23:03.734Z,77.55
2023-05-14T04:25:31.760Z,77.40
2023-05-14T04:27:59.577Z,77.01
2023-05-14T04:30:27.508Z,76.03
2023-05-14T04:32:55.846Z,75.60
2023-05-14T04:35:24.974Z,75.62
2023-05-14T04:37:53.126Z,75.06
2023-05-14T04:40:21.065Z,75.07
2023-05-14T04:42:49.100Z,74.81
2023-05-14T04:45:17.070Z,74.72
2023-05-14T04:47:46.051Z,74.58
2023-05-14T04:50:14.427Z,74.65
2023-05-14T04:52:42.397Z,74.55
2023-05-14T04:55:10.620Z,74.30
2023-05-14T04:57:38.524Z,73.92
2023-05-14T05:00:07.959Z,73.68
2023-05-14T05:02:36.260Z,73.42
2023-05-14T05:05:04.678Z,72.99
2023-05-14T05:07:32.602Z,72.73
2023-05-14T05:10:00.661Z,72.26
2023-05-14T05:12:30.363Z,72.38
2023-05-14T05:14:58.247Z,72.10
2023-05-14T05:17:26.196Z,71.70
2023-05-14T05:19:54.163Z,71.66
2023-05-14T05:22:22.118Z,71.60
2023-05-14T05:24:50.217Z,71.35
2023-05-14T05:27:18.123Z,71.41
2023-05-14T05:29:46.425Z,71.14
2023-05-14T05:32:14.365Z,71.54
2023-05-14T05:34:42.429Z,71.52
2023-05-14T05:37:12.826Z,71.52
2023-05-14T05:39:40.822Z,71.76
2023-05-14T05:42:08.887Z,71.11
2023-05-14T05:44:36.765Z,70.66
2023-05-14T05:47:04.930Z,70.63
2023-05-14T05:49:32.960Z,70.59
2023-05-14T05:52:00.871Z,70.25
2023-05-14T05:54:28.677Z,70.03
2023-05-14T05:56:56.555Z,69.64
2023-05-14T05:59:25.122Z,69.06
2023-05-14T06:01:53.163Z,69.34
2023-05-14T06:04:21.039Z,69.51
2023-05-14T06:06:49.064Z,69.28
2023-05-14T06:09:16.937Z,68.98
2023-05-14T06:11:44.827Z,68.61
2023-05-14T06:14:12.593Z,68.04
2023-05-14T06:16:40.474Z,68.05
2023-05-14T06:19:08.625Z,67.93
2023-05-14T06:21:36.588Z,67.65
2023-05-14T06:24:04.759Z,67.22
2023-05-14T06:26:32.593Z,66.27
2023-05-14T06:29:00.496Z,64.31
2023-05-14T06:31:28.428Z,62.44
2023-05-14T06:33:56.398Z,61.35
2023-05-14T06:36:31.241Z,60.04
2023-05-14T06:39:05.815Z,59.41
2023-05-14T06:41:33.669Z,58.49
2023-05-14T06:44:02.756Z,58.15
2023-05-14T06:46:30.996Z,58.50
2023-05-14T06:48:59.651Z,59.41
2023-05-14T06:51:27.826Z,59.48
2023-05-14T06:53:56.226Z,58.67
2023-05-14T06:56:26.610Z,57.39
2023-05-14T06:58:54.417Z,56.96
2023-05-14T07:01:23.240Z,56.52
2023-05-14T07:03:51.267Z,57.13
2023-05-14T07:06:19.204Z,56.99
2023-05-14T07:08:47.061Z,56.81
2023-05-14T07:11:15.526Z,55.55
2023-05-14T07:13:43.448Z,55.25
2023-05-14T07:16:11.434Z,55.22
2023-05-14T07:18:39.539Z,55.65
2023-05-14T07:21:07.472Z,55.41
2023-05-14T07:23:36.693Z,54.62
2023-05-14T07:26:08.159Z,54.48
2023-05-14T07:28:36.271Z,53.35
2023-05-14T07:31:09.177Z,53.41
2023-05-14T07:33:37.285Z,52.70
2023-05-14T07:36:05.455Z,52.82
2023-05-14T07:38:33.343Z,52.42
2023-05-14T07:41:01.247Z,50.41
2023-05-14T07:43:29.661Z,49.37
2023-05-14T07:45:57.650Z,49.08
2023-05-14T07:48:25.606Z,49.13
2023-05-14T07:50:53.965Z,48.54
2023-05-14T07:53:22.070Z,49.21
2023-05-14T07:55:49.885Z,49.94
2023-05-14T07:58:17.868Z,50.01
2023-05-14T08:00:45.761Z,49.57
2023-05-14T08:03:13.868Z,49.83
2023-05-14T08:05:41.965Z,48.91
2023-05-14T08:08:09.820Z,48.70
2023-05-14T08:10:37.866Z,49.52
2023-05-14T08:13:05.970Z,49.56
2023-05-14T08:15:34.498Z,49.74
2023-05-14T08:18:03.781Z,49.50
2023-05-14T08:20:31.975Z,49.55
2023-05-14T08:22:59.874Z,49.88
2023-05-14T08:25:27.805Z,48.26
2023-05-14T08:27:55.803Z,47.12
2023-05-14T08:30:23.786Z,47.03
2023-05-14T08:32:52.977Z,47.51
2023-05-14T08:35:20.977Z,47.84
2023-05-14T08:37:50.712Z,48.54
2023-05-14T08:40:18.782Z,47.74
2023-05-14T08:42:48.581Z,47.08
2023-05-14T08:45:20.433Z,46.73
2023-05-14T08:47:50.978Z,46.76
2023-05-14T08:50:23.512Z,46.31
2023-05-14T08:52:53.063Z,45.91
2023-05-14T08:55:22.456Z,45.67
2023-05-14T08:57:50.433Z,45.63
2023-05-14T09:00:18.734Z,45.53
2023-05-14T09:02:47.947Z,44.78
2023-05-14T09:05:18.839Z,43.47
2023-05-14T09:07:46.993Z,43.38
2023-05-14T09:10:16.175Z,42.57
2023-05-14T09:12:44.662Z,42.47
2023-05-14T09:15:13.131Z,43.46
2023-05-14T09:17:41.451Z,44.21
2023-05-14T09:20:12.495Z,44.09
2023-05-14T09:22:40.864Z,43.76
2023-05-14T09:25:12.037Z,43.48
2023-05-14T09:27:40.150Z,43.17
2023-05-14T09:30:12.773Z,43.45
2023-05-14T09:32:46.141Z,43.26
2023-05-14T09:35:21.967Z,43.52
2023-05-14T09:37:55.030Z,42.31
2023-05-14T09:40:25.581Z,42.42
2023-05-14T09:42:54.444Z,42.65
2023-05-14T09:45:22.437Z,43.97
2023-05-14T09:47:50.427Z,42.68
2023-05-14T09:50:18.585Z,41.63
2023-05-14T09:52:46.536Z,41.01
2023-05-14T09:55:15.074Z,41.45
2023-05-14T09:57:42.900Z,41.17
2023-05-14T10:00:12.859Z,41.24
2023-05-14T10:02:45.850Z,41.35
2023-05-14T10:05:16.082Z,41.36
2023-05-14T10:07:48.474Z,41.35
2023-05-14T10:10:20.258Z,40.39
2023-05-14T10:12:55.319Z,40.09
2023-05-14T10:15:34.114Z,39.25
2023-05-14T10:18:10.356Z,38.74
2023-05-14T10:20:40.223Z,37.91
2023-05-14T10:23:08.187Z,37.84
2023-05-14T10:25:37.512Z,37.75
2023-05-14T10:28:06.323Z,37.88
2023-05-14T10:30:34.218Z,38.58
2023-05-14T10:33:08.965Z,38.26
2023-05-14T10:36:03.131Z,39.02
2023-05-14T10:38:36.225Z,39.08
2023-05-14T10:41:10.550Z,40.02
2023-05-14T10:43:41.078Z,40.11
2023-05-14T10:46:12.724Z,39.75
2023-05-14T10:48:45.813Z,39.96
2023-05-14T10:51:17.598Z,40.17
2023-05-14T10:53:45.661Z,40.99
2023-05-14T10:56:14.449Z,41.51
2023-05-14T10:58:44.243Z,41.47
2023-05-14T11:01:16.211Z,41.55
2023-05-14T11:03:46.969Z,41.41
2023-05-14T11:06:16.406Z,40.88
2023-05-14T11:08:46.477Z,40.25
2023-05-14T11:11:14.677Z,40.18
2023-05-14T11:13:42.956Z,40.03
2023-05-14T11:16:22.633Z,40.58
2023-05-14T11:19:03.501Z,41.04
2023-05-14T11:21:32.886Z,40.84
2023-05-14T11:24:01.402Z,40.91
2023-05-14T11:26:29.472Z,41.13
2023-05-14T11:28:57.512Z,41.11
2023-05-14T11:31:25.683Z,41.14
2023-05-14T11:33:54.347Z,41.51
2023-05-14T11:36:22.177Z,41.66
2023-05-14T11:38:52.325Z,41.90
2023-05-14T11:41:23.146Z,41.90
2023-05-14T11:43:51.558Z,41.60
2023-05-14T11:46:19.731Z,41.49
2023-05-14T11:48:48.261Z,42.01
2023-05-14T11:51:16.234Z,42.17
2023-05-14T11:53:45.678Z,41.10
2023-05-14T11:56:13.603Z,40.90
2023-05-14T11:58:41.648Z,40.10
2023-05-14T12:01:13.818Z,39.80
2023-05-14T12:03:42.388Z,39.24
2023-05-14T12:06:10.526Z,39.28
2023-05-14T12:08:38.462Z,39.38
2023-05-14T12:11:07.079Z,39.08
2023-05-14T12:13:36.722Z,39.38
2023-05-14T12:16:05.489Z,40.11
2023-05-14T12:18:33.733Z,40.43
2023-05-14T12:21:08.467Z,40.85
2023-05-14T12:23:39.204Z,41.33
2023-05-14T12:26:09.070Z,41.72
2023-05-14T12:28:43.389Z,42.36
2023-05-14T12:31:11.582Z,42.86
2023-05-14T12:33:39.676Z,42.93
2023-05-14T12:36:20.592Z,44.60
2023-05-14T12:38:50.999Z,44.99
2023-05-14T12:41:19.035Z,44.70
2023-05-14T12:43:49.659Z,44.05
2023-05-14T12:46:17.701Z,43.53
2023-05-14T12:48:46.456Z,43.73
2023-05-14T12:51:14.821Z,44.28
2023-05-14T12:53:42.816Z,44.05
2023-05-14T12:56:12.398Z,44.34
2023-05-14T12:58:40.725Z,44.49
2023-05-14T13:01:08.651Z,45.28
2023-05-14T13:03:36.482Z,45.57
2023-05-14T13:06:04.738Z,46.71
2023-05-14T13:08:32.598Z,46.73
2023-05-14T13:11:00.426Z,46.70
2023-05-14T13:13:28.393Z,47.57
2023-05-14T13:15:56.310Z,48.33
2023-05-14T13:18:25.887Z,49.56
2023-05-14T13:20:54.402Z,50.57
2023-05-14T13:23:22.302Z,50.98
2023-05-14T13:25:50.747Z,52.29
2023-05-14T13:28:18.765Z,53.18
2023-05-14T13:31:13.226Z,54.09
2023-05-14T13:33:43.640Z,55.26
2023-05-14T13:36:14.403Z,55.67
2023-05-14T13:38:42.374Z,56.31
2023-05-14T13:41:10.330Z,57.17
2023-05-14T13:43:38.184Z,57.44
2023-05-14T13:46:06.855Z,57.54
2023-05-14T13:48:37.165Z,58.03
2023-05-14T13:51:05.072Z,57.93
2023-05-14T13:53:32.941Z,58.45
2023-05-14T13:56:01.883Z,57.91
2023-05-14T13:58:30.454Z,57.28
2023-05-14T14:00:58.373Z,57.30
2023-05-14T14:03:26.772Z,57.09
2023-05-14T14:05:54.742Z,56.78
2023-05-14T14:08:24.337Z,56.46
2023-05-14T14:10:54.682Z,55.93
2023-05-14T14:13:22.982Z,55.19
2023-05-14T14:15:51.346Z,54.85
2023-05-14T14:18:19.184Z,54.53
2023-05-14T14:20:47.082Z,54.45
2023-05-14T14:23:17.409Z,54.46
2023-05-14T14:25:45.381Z,54.05
2023-05-14T14:28:13.809Z,53.76
2023-05-14T14:30:41.825Z,54.04
2023-05-14T14:33:09.781Z,54.50
2023-05-14T14:35:37.813Z,54.15
2023-05-14T14:38:05.724Z,53.91
2023-05-14T14:40:34.536Z,53.32
2023-05-14T14:43:02.503Z,53.06
2023-05-14T14:45:30.748Z,52.62
2023-05-14T14:48:26.356Z,52.66
2023-05-14T14:50:55.763Z,52.68
2023-05-14T14:53:24.626Z,52.97
2023-05-14T14:55:52.905Z,53.42
2023-05-14T14:58:21.004Z,53.49
2023-05-14T15:00:52.547Z,53.33
2023-05-14T15:03:21.427Z,53.10
2023-05-14T15:05:49.585Z,53.09
2023-05-14T15:08:17.816Z,53.13
2023-05-14T15:10:48.594Z,53.20
2023-05-14T15:13:16.611Z,53.01
2023-05-14T15:15:46.609Z,52.49
2023-05-14T15:18:14.742Z,52.46
2023-05-14T15:20:42.751Z,52.39
2023-05-14T15:23:11.691Z,52.25
2023-05-14T15:25:39.592Z,52.39
2023-05-14T15:28:10.353Z,52.12
2023-05-14T15:30:38.199Z,51.71
2023-05-14T15:33:08.890Z,51.83
2023-05-14T15:35:38.107Z,52.10
2023-05-14T15:38:07.003Z,51.75
2023-05-14T15:40:35.286Z,51.73
2023-05-14T15:43:03.248Z,52.54
2023-05-14T15:45:31.046Z,52.31
2023-05-14T15:47:58.888Z,52.23
2023-05-14T15:50:27.399Z,52.50
2023-05-14T15:52:55.376Z,52.28
2023-05-14T15:55:23.261Z,52.69
2023-05-14T15:57:51.240Z,52.85
2023-05-14T16:00:19.638Z,52.81
2023-05-14T16:02:47.650Z,52.70
2023-05-14T16:05:16.214Z,52.76
2023-05-14T16:07:44.138Z,51.86
2023-05-14T16:10:11.993Z,52.23
2023-05-14T16:12:39.828Z,52.75
2023-05-14T16:15:08.591Z,53.01
2023-05-14T16:17:39.570Z,53.03
2023-05-14T16:20:07.999Z,52.83
2023-05-14T16:22:36.561Z,52.49
2023-05-14T16:25:04.990Z,53.61
2023-05-14T16:27:33.007Z,53.72
2023-05-14T16:30:00.793Z,53.15
2023-05-14T16:32:28.912Z,53.65
2023-05-14T16:34:56.883Z,53.66
2023-05-14T16:37:24.914Z,53.09
2023-05-14T16:39:53.538Z,53.43
2023-05-14T16:42:21.725Z,53.12
2023-05-14T16:44:49.703Z,53.00
2023-05-14T16:47:17.555Z,53.01
2023-05-14T16:49:45.427Z,53.37
2023-05-14T16:52:13.309Z,53.37
2023-05-14T16:54:41.153Z,52.48
2023-05-14T16:57:10.991Z,52.19
2023-05-14T16:59:39.880Z,51.99
2023-05-14T17:02:08.158Z,52.30
2023-05-14T17:04:38.790Z,52.54
2023-05-14T17:07:06.928Z,52.44
2023-05-14T17:09:34.929Z,52.70
2023-05-14T17:12:02.863Z,52.66
2023-05-14T17:14:31.739Z,52.37
2023-05-14T17:17:00.061Z,52.98
2023-05-14T17:19:28.098Z,53.36
2023-05-14T17:21:56.000Z,53.09
2023-05-14T17:24:23.895Z,53.09
2023-05-14T17:26:51.832Z,52.86
2023-05-14T17:29:19.774Z,53.02
2023-05-14T17:31:48.497Z,53.23
2023-05-14T17:34:17.858Z,53.42
2023-05-14T17:36:45.938Z,52.91
2023-05-14T17:39:13.718Z,52.62
2023-05-14T17:41:42.142Z,52.72
2023-05-14T17:44:12.101Z,53.10
2023-05-14T17:46:41.933Z,52.34
2023-05-14T17:49:09.909Z,52.54
2023-05-14T17:51:38.509Z,52.77
2023-05-14T17:54:06.389Z,52.70
2023-05-14T17:56:34.391Z,53.11
2023-05-14T17:59:02.328Z,53.13
2023-05-14T18:01:30.913Z,53.23
2023-05-14T18:03:58.900Z,53.21
2023-05-14T18:06:26.877Z,53.25
2023-05-14T18:08:54.784Z,53.61
2023-05-14T18:11:22.653Z,52.92
2023-05-14T18:13:50.679Z,53.22
2023-05-14T18:16:18.534Z,53.16
2023-05-14T18:18:46.715Z,52.97
2023-05-14T18:21:14.685Z,51.88
2023-05-14T18:23:42.767Z,51.39
2023-05-14T18:26:10.845Z,51.69
2023-05-14T18:28:38.795Z,51.57
2023-05-14T18:31:08.271Z,51.81
2023-05-14T18:33:36.125Z,51.77
2023-05-14T18:36:04.383Z,51.47
2023-05-14T18:38:32.292Z,51.20
2023-05-14T18:41:00.121Z,51.53
2023-05-14T18:43:28.121Z,51.01
2023-05-14T18:45:56.012Z,50.90
2023-05-14T18:48:24.058Z,51.02
2023-05-14T18:50:51.967Z,50.63
2023-05-14T18:53:19.789Z,50.65
2023-05-14T18:55:47.572Z,50.91
2023-05-14T18:58:16.580Z,50.40
2023-05-14T19:00:44.694Z,50.72
2023-05-14T19:03:12.561Z,50.68
2023-05-14T19:05:40.418Z,50.74
2023-05-14T19:08:08.375Z,50.74
2023-05-14T19:10:36.253Z,50.41
2023-05-14T19:13:04.100Z,50.53
2023-05-14T19:15:32.412Z,50.16
2023-05-14T19:18:01.421Z,49.93
2023-05-14T19:20:29.361Z,49.77
2023-05-14T19:22:57.182Z,49.64
2023-05-14T19:25:25.679Z,49.90
2023-05-14T19:27:55.341Z,49.76
2023-05-14T19:30:23.467Z,50.22
2023-05-14T19:32:51.364Z,50.11
2023-05-14T19:35:19.425Z,49.98
2023-05-14T19:37:47.361Z,50.25
2023-05-14T19:40:15.416Z,50.27
2023-05-14T19:42:43.722Z,50.18
2023-05-14T19:45:11.764Z,49.86
2023-05-14T19:47:39.820Z,49.72
2023-05-14T19:50:08.582Z,50.33
2023-05-14T19:52:36.467Z,49.97
2023-05-14T19:55:04.951Z,50.34
2023-05-14T19:57:32.877Z,50.86
2023-05-14T20:00:00.830Z,50.45
2023-05-14T20:02:29.358Z,50.89
2023-05-14T20:04:58.006Z,50.63
2023-05-14T20:07:26.869Z,50.89
2023-05-14T20:09:54.657Z,51.17
2023-05-14T20:12:25.324Z,51.02
2023-05-14T20:14:54.064Z,50.91
2023-05-14T20:17:22.191Z,50.99
2023-05-14T20:19:50.260Z,51.14
2023-05-14T20:22:21.448Z,51.35
2023-05-14T20:24:49.332Z,51.53
2023-05-14T20:27:17.195Z,51.97
2023-05-14T20:29:46.723Z,51.60
2023-05-14T20:32:15.791Z,51.22
2023-05-14T20:34:43.570Z,51.61
2023-05-14T20:37:11.954Z,52.24
2023-05-14T20:39:40.462Z,51.99
2023-05-14T20:42:08.385Z,52.22
2023-05-14T20:44:36.165Z,52.40
2023-05-14T20:47:04.510Z,52.50
2023-05-14T20:49:32.330Z,52.59
2023-05-14T20:52:00.227Z,52.69
2023-05-14T20:54:32.288Z,53.03
2023-05-14T20:57:00.261Z,52.76
2023-05-14T20:59:28.209Z,53.02
2023-05-14T21:01:56.289Z,53.83
2023-05-14T21:04:24.334Z,53.99
2023-05-14T21:06:52.395Z,53.53
2023-05-14T21:09:23.902Z,52.55
2023-05-14T21:11:51.706Z,52.46
2023-05-14T21:14:19.559Z,52.98
2023-05-14T21:16:48.545Z,52.64
2023-05-14T21:19:16.763Z,52.74
2023-05-14T21:21:44.776Z,53.45
2023-05-14T21:24:12.558Z,53.85
2023-05-14T21:26:41.427Z,54.10
2023-05-14T21:29:09.290Z,53.94
2023-05-14T21:31:37.264Z,53.57
2023-05-14T21:34:05.197Z,53.49
2023-05-14T21:36:33.124Z,53.51
2023-05-14T21:39:01.037Z,53.98
2023-05-14T21:41:30.404Z,54.25
2023-05-14T21:43:58.245Z,54.39
2023-05-14T21:46:26.169Z,54.62
2023-05-14T21:48:54.072Z,53.91
2023-05-14T21:51:22.430Z,53.90
2023-05-14T21:53:50.356Z,54.84
2023-05-14T21:56:18.376Z,55.14
2023-05-14T21:58:46.150Z,55.77
2023-05-14T22:01:14.011Z,55.80
2023-05-14T22:03:42.085Z,55.24
2023-05-14T22:06:10.308Z,55.57
2023-05-14T22:08:38.134Z,55.72
2023-05-14T22:11:05.949Z,55.48
2023-05-14T22:13:35.406Z,55.64
2023-05-14T22:16:12.183Z,55.58
2023-05-14T22:18:41.711Z,55.82
2023-05-14T22:21:09.801Z,55.33
2023-05-14T22:23:37.603Z,55.73
2023-05-14T22:26:05.688Z,55.85
2023-05-14T22:28:33.567Z,56.10
2023-05-14T22:31:01.662Z,56.46
2023-05-14T22:33:30.000Z,56.54
2023-05-14T22:35:57.846Z,56.13
2023-05-14T22:38:25.757Z,56.78
2023-05-14T22:40:53.653Z,57.14
2023-05-14T22:43:21.414Z,57.27
2023-05-14T22:45:49.699Z,57.33
2023-05-14T22:48:17.952Z,57.69
2023-05-14T22:50:45.916Z,57.26
2023-05-14T22:53:13.745Z,57.25
2023-05-14T22:55:41.628Z,56.90
2023-05-14T22:58:09.443Z,56.89
2023-05-14T23:00:37.408Z,56.68
2023-05-14T23:03:05.448Z,56.89
2023-05-14T23:05:33.458Z,56.90
2023-05-14T23:08:01.565Z,57.76
2023-05-14T23:10:30.026Z,57.86
2023-05-14T23:12:57.995Z,58.03
2023-05-14T23:15:26.064Z,57.76
2023-05-14T23:17:54.338Z,57.32
2023-05-14T23:20:22.238Z,57.31
2023-05-14T23:22:50.024Z,57.13
2023-05-14T23:25:17.921Z,56.76
2023-05-14T23:27:45.890Z,56.61
2023-05-14T23:30:13.868Z,56.33
2023-05-14T23:32:41.845Z,56.08
2023-05-14T23:35:10.379Z,55.93
2023-05-14T23:37:42.652Z,55.86
2023-05-14T23:40:11.117Z,56.17
2023-05-14T23:42:38.922Z,56.13
2023-05-14T23:45:08.408Z,55.80
2023-05-14T23:47:36.744Z,55.89
2023-05-14T23:50:05.094Z,55.64
2023-05-14T23:52:33.114Z,55.62
2023-05-14T23:55:01.643Z,55.29
2023-05-14T23:57:29.730Z,54.68
2023-05-14T23:59:57.596Z,53.89
